createdAt,value
2018-08-27T00:03:24.361Z,13.60
2018-08-27T00:08:27.480Z,13.50
2018-08-27T00:13:30.602Z,13.50
2018-08-27T00:18:33.737Z,13.40
2018-08-27T00:23:36.869Z,13.30
2018-08-27T00:28:40.029Z,13.20
2018-08-27T00:33:43.153Z,13.20
2018-08-27T00:38:46.271Z,13.10
2018-08-27T00:43:49.396Z,13.10
2018-08-27T00:48:52.547Z,13.10
2018-08-27T00:53:55.660Z,13.00
2018-08-27T00:58:58.789Z,13.00
2018-08-27T01:04:01.915Z,12.90
2018-08-27T01:09:06.829Z,12.90
2018-08-27T01:14:09.985Z,12.80
2018-08-27T01:19:13.102Z,12.80
2018-08-27T01:24:16.440Z,12.70
2018-08-27T01:29:19.557Z,12.60
2018-08-27T01:34:22.683Z,12.60
2018-08-27T01:39:25.796Z,12.50
2018-08-27T01:44:28.993Z,12.50
2018-08-27T01:49:32.113Z,12.40
2018-08-27T01:54:35.281Z,12.30
2018-08-27T01:59:38.392Z,12.30
2018-08-27T02:04:41.529Z,12.20
2018-08-27T02:09:44.659Z,12.20
2018-08-27T02:14:47.776Z,12.10
2018-08-27T02:19:50.894Z,12.10
2018-08-27T02:24:54.016Z,12.00
2018-08-27T02:29:57.168Z,12.00
2018-08-27T02:35:00.324Z,11.90
2018-08-27T02:40:03.384Z,11.90
2018-08-27T02:45:06.809Z,11.80
2018-08-27T02:50:09.903Z,11.80
2018-08-27T02:55:13.033Z,11.70
2018-08-27T03:00:16.246Z,11.70
2018-08-27T03:05:19.328Z,11.70
2018-08-27T03:10:22.444Z,11.70
2018-08-27T03:15:25.557Z,11.60
2018-08-27T03:20:28.688Z,11.60
2018-08-27T03:25:31.867Z,11.60
2018-08-27T03:30:34.994Z,11.50
2018-08-27T03:35:38.129Z,11.50
2018-08-27T03:40:41.311Z,11.50
2018-08-27T03:45:44.388Z,11.40
2018-08-27T03:50:47.512Z,11.40
2018-08-27T03:55:50.628Z,11.40
2018-08-27T04:00:53.764Z,11.40
2018-08-27T04:05:56.884Z,11.40
2018-08-27T04:10:59.995Z,11.30
2018-08-27T04:16:03.118Z,11.30
2018-08-27T04:21:06.238Z,11.30
2018-08-27T04:26:09.396Z,11.30
2018-08-27T04:31:12.875Z,11.20
2018-08-27T04:36:15.995Z,11.20
2018-08-27T04:41:19.124Z,11.20
2018-08-27T04:46:22.310Z,11.20
2018-08-27T04:51:25.402Z,11.10
2018-08-27T04:56:28.520Z,11.10
2018-08-27T05:01:31.772Z,11.10
2018-08-27T05:06:34.916Z,11.10
2018-08-27T05:11:38.613Z,11.10
2018-08-27T05:16:41.801Z,11.10
2018-08-27T05:21:44.910Z,11.20
2018-08-27T05:26:48.934Z,11.20
2018-08-27T05:31:52.056Z,11.30
2018-08-27T05:36:55.144Z,11.50
2018-08-27T05:41:58.252Z,11.60
2018-08-27T05:47:01.359Z,11.90
2018-08-27T05:52:04.676Z,12.10
2018-08-27T05:57:07.776Z,12.30
2018-08-27T06:02:10.905Z,12.50
2018-08-27T06:07:14.026Z,12.80
2018-08-27T06:12:17.140Z,13.00
2018-08-27T06:17:20.254Z,13.30
2018-08-27T06:22:23.499Z,13.50
2018-08-27T06:27:26.563Z,13.80
2018-08-27T06:32:29.693Z,14.20
2018-08-27T06:37:32.794Z,14.50
2018-08-27T06:42:35.909Z,14.90
2018-08-27T06:47:39.037Z,15.20
2018-08-27T06:52:42.152Z,15.60
2018-08-27T06:57:45.264Z,15.80
2018-08-27T07:02:48.393Z,16.00
2018-08-27T07:07:51.509Z,16.40
2018-08-27T07:12:54.629Z,16.70
2018-08-27T07:17:57.836Z,17.10
2018-08-27T07:23:00.948Z,17.30
2018-08-27T07:28:04.052Z,17.60
2018-08-27T07:33:07.263Z,17.90
2018-08-27T07:38:10.380Z,18.10
2018-08-27T07:43:13.475Z,18.40
2018-08-27T07:48:16.584Z,18.60
2018-08-27T07:53:19.696Z,19.00
2018-08-27T07:58:22.933Z,19.20
2018-08-27T08:03:26.048Z,19.50
2018-08-27T08:08:29.153Z,19.70
2018-08-27T08:13:32.297Z,19.90
2018-08-27T08:18:35.405Z,20.10
2018-08-27T08:23:38.512Z,20.40
2018-08-27T08:28:41.653Z,20.60
2018-08-27T08:33:44.772Z,20.80
2018-08-27T08:38:47.873Z,21.10
2018-08-27T08:43:50.983Z,21.40
2018-08-27T08:48:54.096Z,21.70
2018-08-27T08:53:57.203Z,22.00
2018-08-27T08:59:00.316Z,22.20
2018-08-27T09:04:03.448Z,22.30
2018-08-27T09:09:07.883Z,22.40
2018-08-27T09:14:10.960Z,22.40
2018-08-27T09:19:14.077Z,22.30
2018-08-27T09:24:17.187Z,22.30
2018-08-27T09:29:20.292Z,22.50
2018-08-27T09:34:23.413Z,22.60
2018-08-27T09:39:26.524Z,23.00
2018-08-27T09:44:29.645Z,23.20
2018-08-27T09:49:32.749Z,23.50
2018-08-27T09:54:36.142Z,23.60
2018-08-27T09:59:39.257Z,23.90
2018-08-27T10:04:42.438Z,24.20
2018-08-27T10:09:45.549Z,24.40
2018-08-27T10:14:48.666Z,24.60
2018-08-27T10:19:51.742Z,24.80
2018-08-27T10:24:54.877Z,25.00
2018-08-27T10:29:58.053Z,25.20
2018-08-27T10:35:01.097Z,25.40
2018-08-27T10:40:04.215Z,25.60
2018-08-27T10:45:07.326Z,25.70
2018-08-27T10:50:10.462Z,25.90
2018-08-27T10:55:13.544Z,26.10
2018-08-27T11:00:16.654Z,26.30
2018-08-27T11:05:19.766Z,26.40
2018-08-27T11:10:22.888Z,26.50
2018-08-27T11:15:25.988Z,26.70
2018-08-27T11:20:29.211Z,26.90
2018-08-27T11:25:32.221Z,27.10
2018-08-27T11:30:35.476Z,27.10
2018-08-27T11:35:38.589Z,27.00
2018-08-27T11:40:41.705Z,27.20
2018-08-27T11:45:44.812Z,27.30
2018-08-27T11:50:48.045Z,27.40
2018-08-27T11:55:51.104Z,27.40
2018-08-27T12:00:58.517Z,27.60
2018-08-27T12:06:01.628Z,27.80
2018-08-27T12:11:05.572Z,27.90
2018-08-27T12:16:08.677Z,28.00
2018-08-27T12:21:11.796Z,27.80
2018-08-27T12:26:16.118Z,27.70
2018-08-27T12:31:19.319Z,27.80
2018-08-27T12:36:22.666Z,27.80
2018-08-27T12:41:25.903Z,27.90
2018-08-27T12:46:29.256Z,28.00
2018-08-27T12:51:32.547Z,28.10
2018-08-27T12:56:35.767Z,28.20
2018-08-27T13:01:39.193Z,28.20
2018-08-27T13:06:42.292Z,28.20
2018-08-27T13:11:45.672Z,28.10
2018-08-27T13:16:49.018Z,28.00
2018-08-27T13:21:52.425Z,27.90
2018-08-27T13:26:55.987Z,27.90
2018-08-27T13:31:59.178Z,27.80
2018-08-27T13:37:02.200Z,27.70
2018-08-27T13:42:05.919Z,27.80
2018-08-27T13:47:09.076Z,27.90
2018-08-27T13:52:12.168Z,27.90
2018-08-27T13:57:15.272Z,28.00
2018-08-27T14:02:18.394Z,28.00
2018-08-27T14:07:21.503Z,28.10
2018-08-27T14:12:24.661Z,28.10
2018-08-27T14:17:27.749Z,28.20
2018-08-27T14:22:30.853Z,28.10
2018-08-27T14:27:33.993Z,28.10
2018-08-27T14:32:37.171Z,28.10
2018-08-27T14:37:40.218Z,28.10
2018-08-27T14:42:43.427Z,28.10
2018-08-27T14:47:46.508Z,27.90
2018-08-27T14:52:49.605Z,27.80
2018-08-27T14:57:52.988Z,27.70
2018-08-27T15:02:56.097Z,27.60
2018-08-27T15:07:59.308Z,27.50
2018-08-27T15:13:02.425Z,27.40
2018-08-27T15:18:05.567Z,27.40
2018-08-27T15:23:08.940Z,27.30
2018-08-27T15:28:12.044Z,27.20
2018-08-27T15:33:15.164Z,27.00
2018-08-27T15:38:18.316Z,26.90
2018-08-27T15:43:21.410Z,26.90
2018-08-27T15:48:24.500Z,26.80
2018-08-27T15:53:27.620Z,26.80
2018-08-27T15:58:30.732Z,26.70
2018-08-27T16:03:33.937Z,26.50
2018-08-27T16:08:37.047Z,26.50
2018-08-27T16:13:40.551Z,26.40
2018-08-27T16:18:43.660Z,26.30
2018-08-27T16:23:46.781Z,26.20
2018-08-27T16:28:49.940Z,26.10
2018-08-27T16:33:53.065Z,26.00
2018-08-27T16:38:56.188Z,25.90
2018-08-27T16:43:59.304Z,25.90
2018-08-27T16:49:02.516Z,25.80
2018-08-27T16:54:05.805Z,25.70
2018-08-27T16:59:08.922Z,25.60
2018-08-27T17:04:12.028Z,25.60
2018-08-27T17:09:15.156Z,25.50
2018-08-27T17:14:18.264Z,25.40
2018-08-27T17:19:21.460Z,25.40
2018-08-27T17:24:24.519Z,25.20
2018-08-27T17:29:27.648Z,25.10
2018-08-27T17:34:30.776Z,25.00
2018-08-27T17:39:33.885Z,24.90
2018-08-27T17:44:37.033Z,24.80
2018-08-27T17:49:40.160Z,24.70
2018-08-27T17:54:43.368Z,24.70
2018-08-27T17:59:46.457Z,24.60
2018-08-27T18:04:49.579Z,24.50
2018-08-27T18:09:52.696Z,24.40
2018-08-27T18:14:55.824Z,24.20
2018-08-27T18:19:58.956Z,24.20
2018-08-27T18:25:02.114Z,24.10
2018-08-27T18:30:06.149Z,24.00
2018-08-27T18:35:09.285Z,23.90
2018-08-27T18:40:12.395Z,23.80
2018-08-27T18:45:15.570Z,23.70
2018-08-27T18:50:18.625Z,23.60
2018-08-27T18:55:21.749Z,23.60
2018-08-27T19:00:24.930Z,23.50
2018-08-27T19:05:28.014Z,23.40
2018-08-27T19:10:31.089Z,23.40
2018-08-27T19:15:34.204Z,23.30
2018-08-27T19:20:37.337Z,23.20
2018-08-27T19:25:40.441Z,23.20
2018-08-27T19:30:43.560Z,23.10
2018-08-27T19:35:46.780Z,23.00
2018-08-27T19:40:49.801Z,23.00
2018-08-27T19:45:53.061Z,22.90
2018-08-27T19:50:56.089Z,22.90
2018-08-27T19:55:59.220Z,22.80
2018-08-27T20:01:02.416Z,22.80
2018-08-27T20:06:05.976Z,22.70
2018-08-27T20:11:09.102Z,22.60
2018-08-27T20:16:12.200Z,22.60
2018-08-27T20:21:15.323Z,22.50
2018-08-27T20:26:18.464Z,22.40
2018-08-27T20:31:21.727Z,22.40
2018-08-27T20:36:24.864Z,22.30
2018-08-27T20:41:27.978Z,22.30
2018-08-27T20:46:31.076Z,22.20
2018-08-27T20:51:34.212Z,22.10
2018-08-27T20:56:37.334Z,22.10
2018-08-27T21:01:40.429Z,22.00
2018-08-27T21:06:43.536Z,21.90
2018-08-27T21:11:46.655Z,21.90
2018-08-27T21:16:49.769Z,21.90
2018-08-27T21:21:52.889Z,21.80
2018-08-27T21:26:55.992Z,21.80
2018-08-27T21:31:59.142Z,21.70
2018-08-27T21:37:02.232Z,21.60
2018-08-27T21:42:05.791Z,21.60
2018-08-27T21:47:09.069Z,21.50
2018-08-27T21:52:12.187Z,21.50
2018-08-27T21:57:15.328Z,21.50
2018-08-27T22:02:23.954Z,21.40
2018-08-27T22:07:27.052Z,21.40
2018-08-27T22:12:30.160Z,21.30
2018-08-27T22:17:33.288Z,21.30
2018-08-27T22:22:36.528Z,21.20
2018-08-27T22:27:39.649Z,21.20
2018-08-27T22:32:42.748Z,21.10
2018-08-27T22:37:45.869Z,21.10
2018-08-27T22:42:49.308Z,21.10
2018-08-27T22:47:52.425Z,21.00
2018-08-27T22:52:55.567Z,21.00
2018-08-27T22:57:58.672Z,21.00
2018-08-27T23:03:07.212Z,20.90
2018-08-27T23:08:10.324Z,20.90
2018-08-27T23:13:13.424Z,20.80
2018-08-27T23:18:16.546Z,20.80
2018-08-27T23:23:19.647Z,20.80
2018-08-27T23:28:22.748Z,20.80
2018-08-27T23:33:25.852Z,20.70
2018-08-27T23:38:28.977Z,20.70
2018-08-27T23:43:32.228Z,20.70
2018-08-27T23:48:35.333Z,20.60
2018-08-27T23:53:38.438Z,20.60
2018-08-27T23:58:41.548Z,20.60
